sensor_id;sensor_type;location;lat;lon;timestamp;temperature;humidity
25248;DHT22;13191;47.472;11.214;2023-07-29T00:00:44;14.70;99.90
25248;DHT22;13191;47.472;11.214;2023-07-29T00:03:10;14.70;99.90
25248;DHT22;13191;47.472;11.214;2023-07-29T00:05:37;14.80;99.90
25248;DHT22;13191;47.472;11.214;2023-07-29T00:08:02;14.70;99.90
25248;DHT22;13191;47.472;11.214;2023-07-29T00:10:29;14.70;99.90
25248;DHT22;13191;47.472;11.214;2023-07-29T00:12:54;14.70;99.90
25248;DHT22;13191;47.472;11.214;2023-07-29T00:15:20;14.50;99.90
25248;DHT22;13191;47.472;11.214;2023-07-29T00:17:45;14.50;99.90
25248;DHT22;13191;47.472;11.214;2023-07-29T00:20:11;14.50;99.90
25248;DHT22;13191;47.472;11.214;2023-07-29T00:22:36;14.60;99.90
25248;DHT22;13191;47.472;11.214;2023-07-29T00:25:02;14.70;99.90
25248;DHT22;13191;47.472;11.214;2023-07-29T00:27:28;14.70;99.90
25248;DHT22;13191;47.472;11.214;2023-07-29T00:29:53;14.80;99.90
25248;DHT22;13191;47.472;11.214;2023-07-29T00:32:19;14.70;99.90
25248;DHT22;13191;47.472;11.214;2023-07-29T00:34:44;14.70;99.90
25248;DHT22;13191;47.472;11.214;2023-07-29T00:37:10;14.70;99.90
25248;DHT22;13191;47.472;11.214;2023-07-29T00:39:36;14.70;99.90
25248;DHT22;13191;47.472;11.214;2023-07-29T00:42:03;14.70;99.90
25248;DHT22;13191;47.472;11.214;2023-07-29T00:44:28;14.70;99.90
25248;DHT22;13191;47.472;11.214;2023-07-29T00:46:54;14.70;99.90
25248;DHT22;13191;47.472;11.214;2023-07-29T00:49:21;14.70;99.90
25248;DHT22;13191;47.472;11.214;2023-07-29T00:51:47;14.70;99.90
25248;DHT22;13191;47.472;11.214;2023-07-29T00:54:13;14.70;99.90
25248;DHT22;13191;47.472;11.214;2023-07-29T00:56:39;14.70;99.90
25248;DHT22;13191;47.472;11.214;2023-07-29T00:59:05;14.60;99.90
25248;DHT22;13191;47.472;11.214;2023-07-29T01:01:31;14.50;99.90
25248;DHT22;13191;47.472;11.214;2023-07-29T01:03:57;14.50;99.90
25248;DHT22;13191;47.472;11.214;2023-07-29T01:06:31;14.50;99.90
25248;DHT22;13191;47.472;11.214;2023-07-29T01:09:05;14.50;99.90
25248;DHT22;13191;47.472;11.214;2023-07-29T01:11:55;14.40;99.90
25248;DHT22;13191;47.472;11.214;2023-07-29T01:14:38;14.20;99.90
25248;DHT22;13191;47.472;11.214;2023-07-29T01:17:09;14.00;99.90
25248;DHT22;13191;47.472;11.214;2023-07-29T01:22:16;13.90;99.90
25248;DHT22;13191;47.472;11.214;2023-07-29T01:24:42;14.00;99.90
25248;DHT22;13191;47.472;11.214;2023-07-29T01:27:08;14.10;99.90
25248;DHT22;13191;47.472;11.214;2023-07-29T01:29:33;14.10;99.90
25248;DHT22;13191;47.472;11.214;2023-07-29T01:32:06;14.20;99.90
25248;DHT22;13191;47.472;11.214;2023-07-29T01:34:45;14.20;99.90
25248;DHT22;13191;47.472;11.214;2023-07-29T01:37:19;14.20;99.90
25248;DHT22;13191;47.472;11.214;2023-07-29T01:39:47;14.20;99.90
25248;DHT22;13191;47.472;11.214;2023-07-29T01:42:15;14.30;99.90
25248;DHT22;13191;47.472;11.214;2023-07-29T01:44:41;14.30;99.90
25248;DHT22;13191;47.472;11.214;2023-07-29T01:47:08;14.20;99.90
25248;DHT22;13191;47.472;11.214;2023-07-29T01:49:33;14.20;99.90
25248;DHT22;13191;47.472;11.214;2023-07-29T01:51:59;14.30;99.90
25248;DHT22;13191;47.472;11.214;2023-07-29T01:54:24;14.30;99.90
25248;DHT22;13191;47.472;11.214;2023-07-29T01:56:50;14.20;99.90
25248;DHT22;13191;47.472;11.214;2023-07-29T01:59:16;14.20;99.90
25248;DHT22;13191;47.472;11.214;2023-07-29T02:01:42;14.20;99.90
25248;DHT22;13191;47.472;11.214;2023-07-29T02:04:08;14.20;99.90
25248;DHT22;13191;47.472;11.214;2023-07-29T02:06:33;14.20;99.90
25248;DHT22;13191;47.472;11.214;2023-07-29T02:08:59;14.20;99.90
25248;DHT22;13191;47.472;11.214;2023-07-29T02:11:24;14.20;99.90
25248;DHT22;13191;47.472;11.214;2023-07-29T02:13:53;14.30;99.90
25248;DHT22;13191;47.472;11.214;2023-07-29T02:16:19;14.20;99.90
25248;DHT22;13191;47.472;11.214;2023-07-29T02:18:48;14.20;99.90
25248;DHT22;13191;47.472;11.214;2023-07-29T02:21:15;14.10;99.90
25248;DHT22;13191;47.472;11.214;2023-07-29T02:23:40;14.20;99.90
25248;DHT22;13191;47.472;11.214;2023-07-29T02:26:06;14.20;99.90
25248;DHT22;13191;47.472;11.214;2023-07-29T02:28:31;14.20;99.90
25248;DHT22;13191;47.472;11.214;2023-07-29T02:31:19;14.20;99.90
25248;DHT22;13191;47.472;11.214;2023-07-29T02:33:45;14.30;99.90
25248;DHT22;13191;47.472;11.214;2023-07-29T02:36:12;14.30;99.90
25248;DHT22;13191;47.472;11.214;2023-07-29T02:38:39;14.20;99.90
25248;DHT22;13191;47.472;11.214;2023-07-29T02:41:05;14.10;99.90
25248;DHT22;13191;47.472;11.214;2023-07-29T02:43:30;14.00;99.90
25248;DHT22;13191;47.472;11.214;2023-07-29T02:45:56;14.00;99.90
25248;DHT22;13191;47.472;11.214;2023-07-29T02:48:21;14.00;99.90
25248;DHT22;13191;47.472;11.214;2023-07-29T02:50:47;14.10;99.90
25248;DHT22;13191;47.472;11.214;2023-07-29T02:53:12;14.10;99.90
25248;DHT22;13191;47.472;11.214;2023-07-29T02:55:41;14.20;99.90
25248;DHT22;13191;47.472;11.214;2023-07-29T02:58:07;14.20;99.90
25248;DHT22;13191;47.472;11.214;2023-07-29T03:00:33;14.30;99.90
25248;DHT22;13191;47.472;11.214;2023-07-29T03:02:59;14.30;99.90
25248;DHT22;13191;47.472;11.214;2023-07-29T03:05:27;14.30;99.90
25248;DHT22;13191;47.472;11.214;2023-07-29T03:07:53;14.20;99.90
25248;DHT22;13191;47.472;11.214;2023-07-29T03:10:18;14.20;99.90
25248;DHT22;13191;47.472;11.214;2023-07-29T03:12:44;14.30;99.90
25248;DHT22;13191;47.472;11.214;2023-07-29T03:15:10;14.30;99.90
25248;DHT22;13191;47.472;11.214;2023-07-29T03:17:35;14.30;99.90
25248;DHT22;13191;47.472;11.214;2023-07-29T03:20:01;14.20;99.90
25248;DHT22;13191;47.472;11.214;2023-07-29T03:22:26;14.10;99.90
25248;DHT22;13191;47.472;11.214;2023-07-29T03:24:52;14.20;99.90
25248;DHT22;13191;47.472;11.214;2023-07-29T03:27:18;14.20;99.90
25248;DHT22;13191;47.472;11.214;2023-07-29T03:29:43;14.20;99.90
25248;DHT22;13191;47.472;11.214;2023-07-29T03:32:09;14.30;99.90
25248;DHT22;13191;47.472;11.214;2023-07-29T03:34:34;14.30;99.90
25248;DHT22;13191;47.472;11.214;2023-07-29T03:37:01;14.30;99.90
25248;DHT22;13191;47.472;11.214;2023-07-29T03:39:27;14.30;99.90
25248;DHT22;13191;47.472;11.214;2023-07-29T03:41:52;14.30;99.90
25248;DHT22;13191;47.472;11.214;2023-07-29T03:44:18;14.40;99.90
25248;DHT22;13191;47.472;11.214;2023-07-29T03:46:44;14.40;99.90
25248;DHT22;13191;47.472;11.214;2023-07-29T03:49:10;14.20;99.90
25248;DHT22;13191;47.472;11.214;2023-07-29T03:51:36;14.30;99.90
25248;DHT22;13191;47.472;11.214;2023-07-29T03:54:01;14.30;99.90
25248;DHT22;13191;47.472;11.214;2023-07-29T03:56:27;14.30;99.90
25248;DHT22;13191;47.472;11.214;2023-07-29T03:58:53;14.40;99.90
25248;DHT22;13191;47.472;11.214;2023-07-29T04:01:19;14.40;99.90
25248;DHT22;13191;47.472;11.214;2023-07-29T04:03:47;14.40;99.90
25248;DHT22;13191;47.472;11.214;2023-07-29T04:06:13;14.40;99.90
25248;DHT22;13191;47.472;11.214;2023-07-29T04:08:38;14.40;99.90
25248;DHT22;13191;47.472;11.214;2023-07-29T04:11:04;14.30;99.90
25248;DHT22;13191;47.472;11.214;2023-07-29T04:13:30;14.20;99.90
25248;DHT22;13191;47.472;11.214;2023-07-29T04:15:55;14.20;99.90
25248;DHT22;13191;47.472;11.214;2023-07-29T04:18:21;14.20;99.90
25248;DHT22;13191;47.472;11.214;2023-07-29T04:20:46;14.30;99.90
25248;DHT22;13191;47.472;11.214;2023-07-29T04:23:12;14.30;99.90
25248;DHT22;13191;47.472;11.214;2023-07-29T04:25:38;14.30;99.90
25248;DHT22;13191;47.472;11.214;2023-07-29T04:28:03;14.40;99.90
25248;DHT22;13191;47.472;11.214;2023-07-29T04:30:30;14.40;99.90
25248;DHT22;13191;47.472;11.214;2023-07-29T04:32:55;14.40;99.90
25248;DHT22;13191;47.472;11.214;2023-07-29T04:35:21;14.40;99.90
25248;DHT22;13191;47.472;11.214;2023-07-29T04:37:47;14.30;99.90
25248;DHT22;13191;47.472;11.214;2023-07-29T04:40:13;14.30;99.90
25248;DHT22;13191;47.472;11.214;2023-07-29T04:42:39;14.30;99.90
25248;DHT22;13191;47.472;11.214;2023-07-29T04:45:05;14.40;99.90
25248;DHT22;13191;47.472;11.214;2023-07-29T04:47:31;14.40;99.90
25248;DHT22;13191;47.472;11.214;2023-07-29T04:49:56;14.40;99.90
25248;DHT22;13191;47.472;11.214;2023-07-29T04:52:22;14.50;99.90
25248;DHT22;13191;47.472;11.214;2023-07-29T04:54:47;14.50;99.90
25248;DHT22;13191;47.472;11.214;2023-07-29T04:57:13;14.60;99.90
25248;DHT22;13191;47.472;11.214;2023-07-29T04:59:39;14.60;99.90
25248;DHT22;13191;47.472;11.214;2023-07-29T05:02:04;14.60;99.90
25248;DHT22;13191;47.472;11.214;2023-07-29T05:04:30;14.60;99.90
25248;DHT22;13191;47.472;11.214;2023-07-29T05:06:55;14.60;99.90
25248;DHT22;13191;47.472;11.214;2023-07-29T05:09:21;14.60;99.90
25248;DHT22;13191;47.472;11.214;2023-07-29T05:11:47;14.70;99.90
25248;DHT22;13191;47.472;11.214;2023-07-29T05:14:17;14.60;99.90
25248;DHT22;13191;47.472;11.214;2023-07-29T05:16:43;14.70;99.90
25248;DHT22;13191;47.472;11.214;2023-07-29T05:19:09;14.70;99.90
25248;DHT22;13191;47.472;11.214;2023-07-29T05:21:35;14.80;99.90
25248;DHT22;13191;47.472;11.214;2023-07-29T05:24:00;14.80;99.90
25248;DHT22;13191;47.472;11.214;2023-07-29T05:26:26;14.80;99.90
25248;DHT22;13191;47.472;11.214;2023-07-29T05:28:51;14.80;99.90
25248;DHT22;13191;47.472;11.214;2023-07-29T05:31:17;14.80;99.90
25248;DHT22;13191;47.472;11.214;2023-07-29T05:33:43;14.80;99.90
25248;DHT22;13191;47.472;11.214;2023-07-29T05:36:08;14.80;99.90
25248;DHT22;13191;47.472;11.214;2023-07-29T05:38:34;14.80;99.90
25248;DHT22;13191;47.472;11.214;2023-07-29T05:40:59;14.90;99.90
25248;DHT22;13191;47.472;11.214;2023-07-29T05:43:26;14.90;99.90
25248;DHT22;13191;47.472;11.214;2023-07-29T05:45:52;14.90;99.90
25248;DHT22;13191;47.472;11.214;2023-07-29T05:48:18;15.00;99.90
25248;DHT22;13191;47.472;11.214;2023-07-29T05:50:43;15.00;99.90
25248;DHT22;13191;47.472;11.214;2023-07-29T05:53:09;15.10;99.90
25248;DHT22;13191;47.472;11.214;2023-07-29T05:55:34;15.10;99.90
25248;DHT22;13191;47.472;11.214;2023-07-29T05:58:00;15.20;99.90
25248;DHT22;13191;47.472;11.214;2023-07-29T06:00:26;15.20;99.90
25248;DHT22;13191;47.472;11.214;2023-07-29T06:02:51;15.30;99.90
25248;DHT22;13191;47.472;11.214;2023-07-29T06:05:17;15.30;99.90
25248;DHT22;13191;47.472;11.214;2023-07-29T06:07:42;15.30;99.90
25248;DHT22;13191;47.472;11.214;2023-07-29T06:10:12;15.40;99.90
25248;DHT22;13191;47.472;11.214;2023-07-29T06:12:38;15.50;99.90
25248;DHT22;13191;47.472;11.214;2023-07-29T06:15:05;15.50;99.90
25248;DHT22;13191;47.472;11.214;2023-07-29T06:17:31;15.50;99.90
25248;DHT22;13191;47.472;11.214;2023-07-29T06:19:57;15.60;99.90
25248;DHT22;13191;47.472;11.214;2023-07-29T06:22:22;15.60;99.90
25248;DHT22;13191;47.472;11.214;2023-07-29T06:24:48;15.60;99.90
25248;DHT22;13191;47.472;11.214;2023-07-29T06:27:13;15.60;99.90
25248;DHT22;13191;47.472;11.214;2023-07-29T06:29:39;15.70;99.90
25248;DHT22;13191;47.472;11.214;2023-07-29T06:32:05;15.70;99.90
25248;DHT22;13191;47.472;11.214;2023-07-29T06:34:30;15.80;99.90
25248;DHT22;13191;47.472;11.214;2023-07-29T06:36:56;15.70;99.90
25248;DHT22;13191;47.472;11.214;2023-07-29T06:39:22;15.80;99.90
25248;DHT22;13191;47.472;11.214;2023-07-29T06:41:47;15.70;99.90
25248;DHT22;13191;47.472;11.214;2023-07-29T06:44:13;15.70;99.90
25248;DHT22;13191;47.472;11.214;2023-07-29T06:46:39;15.80;99.90
25248;DHT22;13191;47.472;11.214;2023-07-29T06:49:05;15.80;99.90
25248;DHT22;13191;47.472;11.214;2023-07-29T06:51:31;15.80;99.90
25248;DHT22;13191;47.472;11.214;2023-07-29T06:54:00;15.80;99.90
25248;DHT22;13191;47.472;11.214;2023-07-29T06:56:26;15.90;99.90
25248;DHT22;13191;47.472;11.214;2023-07-29T06:58:51;15.90;99.90
25248;DHT22;13191;47.472;11.214;2023-07-29T07:01:17;16.00;99.90
25248;DHT22;13191;47.472;11.214;2023-07-29T07:03:42;16.00;99.90
25248;DHT22;13191;47.472;11.214;2023-07-29T07:06:08;16.10;99.90
25248;DHT22;13191;47.472;11.214;2023-07-29T07:08:33;16.10;99.90
25248;DHT22;13191;47.472;11.214;2023-07-29T07:10:59;16.20;99.90
25248;DHT22;13191;47.472;11.214;2023-07-29T07:13:25;16.30;99.90
25248;DHT22;13191;47.472;11.214;2023-07-29T07:15:50;16.40;99.90
25248;DHT22;13191;47.472;11.214;2023-07-29T07:18:16;16.50;99.90
25248;DHT22;13191;47.472;11.214;2023-07-29T07:20:41;16.50;99.90
25248;DHT22;13191;47.472;11.214;2023-07-29T07:23:07;16.50;99.90
25248;DHT22;13191;47.472;11.214;2023-07-29T07:25:36;16.60;99.90
25248;DHT22;13191;47.472;11.214;2023-07-29T07:28:02;16.70;99.90
25248;DHT22;13191;47.472;11.214;2023-07-29T07:30:27;16.60;99.90
25248;DHT22;13191;47.472;11.214;2023-07-29T07:40:11;16.90;99.90
25248;DHT22;13191;47.472;11.214;2023-07-29T07:42:37;17.00;99.90
25248;DHT22;13191;47.472;11.214;2023-07-29T07:45:02;17.00;99.90
25248;DHT22;13191;47.472;11.214;2023-07-29T07:47:28;17.00;99.90
25248;DHT22;13191;47.472;11.214;2023-07-29T07:49:53;17.10;99.90
25248;DHT22;13191;47.472;11.214;2023-07-29T07:52:19;17.00;99.90
25248;DHT22;13191;47.472;11.214;2023-07-29T07:54:45;17.10;99.90
25248;DHT22;13191;47.472;11.214;2023-07-29T07:57:10;17.10;99.90
25248;DHT22;13191;47.472;11.214;2023-07-29T07:59:36;17.20;99.90
25248;DHT22;13191;47.472;11.214;2023-07-29T08:02:01;17.40;99.90
25248;DHT22;13191;47.472;11.214;2023-07-29T08:04:27;17.50;99.90
25248;DHT22;13191;47.472;11.214;2023-07-29T08:06:53;17.60;99.90
25248;DHT22;13191;47.472;11.214;2023-07-29T08:09:18;17.70;99.90
25248;DHT22;13191;47.472;11.214;2023-07-29T08:11:44;17.70;99.90
25248;DHT22;13191;47.472;11.214;2023-07-29T08:14:09;17.70;99.90
25248;DHT22;13191;47.472;11.214;2023-07-29T08:16:35;17.80;99.90
25248;DHT22;13191;47.472;11.214;2023-07-29T08:19:00;17.90;99.90
25248;DHT22;13191;47.472;11.214;2023-07-29T08:21:27;17.90;99.90
25248;DHT22;13191;47.472;11.214;2023-07-29T08:23:52;17.90;99.90
25248;DHT22;13191;47.472;11.214;2023-07-29T08:26:18;18.00;99.90
25248;DHT22;13191;47.472;11.214;2023-07-29T08:28:43;18.00;99.90
25248;DHT22;13191;47.472;11.214;2023-07-29T08:31:09;18.10;99.90
25248;DHT22;13191;47.472;11.214;2023-07-29T08:33:35;18.00;99.90
25248;DHT22;13191;47.472;11.214;2023-07-29T08:36:01;18.10;99.90
25248;DHT22;13191;47.472;11.214;2023-07-29T08:38:27;18.10;99.90
25248;DHT22;13191;47.472;11.214;2023-07-29T08:41:08;18.20;99.90
25248;DHT22;13191;47.472;11.214;2023-07-29T08:43:40;18.20;99.90
25248;DHT22;13191;47.472;11.214;2023-07-29T08:46:08;18.30;99.90
25248;DHT22;13191;47.472;11.214;2023-07-29T08:48:41;18.30;99.90
25248;DHT22;13191;47.472;11.214;2023-07-29T08:51:11;18.40;99.90
25248;DHT22;13191;47.472;11.214;2023-07-29T08:53:38;18.50;99.90
25248;DHT22;13191;47.472;11.214;2023-07-29T08:56:04;18.60;99.90
25248;DHT22;13191;47.472;11.214;2023-07-29T08:58:31;18.60;99.90
25248;DHT22;13191;47.472;11.214;2023-07-29T09:00:56;18.70;99.90
25248;DHT22;13191;47.472;11.214;2023-07-29T09:03:22;18.70;99.90
25248;DHT22;13191;47.472;11.214;2023-07-29T09:05:48;18.70;99.90
25248;DHT22;13191;47.472;11.214;2023-07-29T09:08:14;18.80;99.90
25248;DHT22;13191;47.472;11.214;2023-07-29T09:10:40;18.90;99.90
25248;DHT22;13191;47.472;11.214;2023-07-29T09:13:06;19.00;99.90
25248;DHT22;13191;47.472;11.214;2023-07-29T09:15:33;19.00;99.90
25248;DHT22;13191;47.472;11.214;2023-07-29T09:18:14;19.10;99.90
25248;DHT22;13191;47.472;11.214;2023-07-29T09:20:40;19.10;99.90
25248;DHT22;13191;47.472;11.214;2023-07-29T09:23:10;19.20;99.90
25248;DHT22;13191;47.472;11.214;2023-07-29T09:25:37;19.50;99.90
25248;DHT22;13191;47.472;11.214;2023-07-29T09:28:08;19.50;99.90
25248;DHT22;13191;47.472;11.214;2023-07-29T09:30:34;19.60;99.90
25248;DHT22;13191;47.472;11.214;2023-07-29T09:33:00;19.70;99.90
25248;DHT22;13191;47.472;11.214;2023-07-29T09:35:28;19.70;99.90
25248;DHT22;13191;47.472;11.214;2023-07-29T09:37:53;19.80;99.90
25248;DHT22;13191;47.472;11.214;2023-07-29T09:40:19;19.80;99.90
25248;DHT22;13191;47.472;11.214;2023-07-29T09:42:53;20.00;99.90
25248;DHT22;13191;47.472;11.214;2023-07-29T09:45:23;20.10;99.90
25248;DHT22;13191;47.472;11.214;2023-07-29T09:47:49;20.20;99.90
25248;DHT22;13191;47.472;11.214;2023-07-29T09:50:15;20.30;99.90
25248;DHT22;13191;47.472;11.214;2023-07-29T09:52:42;20.30;99.90
25248;DHT22;13191;47.472;11.214;2023-07-29T09:55:12;20.40;99.90
25248;DHT22;13191;47.472;11.214;2023-07-29T09:57:41;20.50;99.90
25248;DHT22;13191;47.472;11.214;2023-07-29T10:00:11;20.50;99.90
25248;DHT22;13191;47.472;11.214;2023-07-29T10:02:41;20.70;99.90
25248;DHT22;13191;47.472;11.214;2023-07-29T10:05:08;20.70;99.90
25248;DHT22;13191;47.472;11.214;2023-07-29T10:07:38;20.70;99.90
25248;DHT22;13191;47.472;11.214;2023-07-29T10:10:05;20.80;99.90
25248;DHT22;13191;47.472;11.214;2023-07-29T10:12:31;20.90;99.90
25248;DHT22;13191;47.472;11.214;2023-07-29T10:15:05;21.10;99.90
25248;DHT22;13191;47.472;11.214;2023-07-29T10:17:37;21.10;99.90
25248;DHT22;13191;47.472;11.214;2023-07-29T10:20:04;21.20;99.90
25248;DHT22;13191;47.472;11.214;2023-07-29T10:22:40;21.20;99.90
25248;DHT22;13191;47.472;11.214;2023-07-29T10:25:22;21.30;99.90
25248;DHT22;13191;47.472;11.214;2023-07-29T10:28:05;21.40;99.90
25248;DHT22;13191;47.472;11.214;2023-07-29T10:30:31;21.50;99.90
25248;DHT22;13191;47.472;11.214;2023-07-29T10:33:06;21.60;99.90
25248;DHT22;13191;47.472;11.214;2023-07-29T10:35:33;21.70;99.90
25248;DHT22;13191;47.472;11.214;2023-07-29T10:38:00;21.90;99.90
25248;DHT22;13191;47.472;11.214;2023-07-29T10:40:26;21.90;99.90
25248;DHT22;13191;47.472;11.214;2023-07-29T10:43:12;22.00;99.90
25248;DHT22;13191;47.472;11.214;2023-07-29T10:45:39;22.10;99.90
25248;DHT22;13191;47.472;11.214;2023-07-29T10:51:25;22.30;99.90
25248;DHT22;13191;47.472;11.214;2023-07-29T10:53:53;22.40;99.90
25248;DHT22;13191;47.472;11.214;2023-07-29T10:56:31;22.50;99.90
25248;DHT22;13191;47.472;11.214;2023-07-29T11:01:42;22.70;99.90
25248;DHT22;13191;47.472;11.214;2023-07-29T11:12:52;23.00;99.90
25248;DHT22;13191;47.472;11.214;2023-07-29T11:15:27;23.10;99.90
25248;DHT22;13191;47.472;11.214;2023-07-29T11:17:57;23.10;99.90
25248;DHT22;13191;47.472;11.214;2023-07-29T11:20:31;23.20;99.90
25248;DHT22;13191;47.472;11.214;2023-07-29T11:22:59;23.20;99.90
25248;DHT22;13191;47.472;11.214;2023-07-29T11:25:26;23.30;99.90
25248;DHT22;13191;47.472;11.214;2023-07-29T11:27:54;23.40;99.90
25248;DHT22;13191;47.472;11.214;2023-07-29T11:30:20;23.50;99.90
25248;DHT22;13191;47.472;11.214;2023-07-29T11:32:47;23.70;99.90
25248;DHT22;13191;47.472;11.214;2023-07-29T11:35:16;23.80;99.90
25248;DHT22;13191;47.472;11.214;2023-07-29T11:37:45;23.80;99.90
25248;DHT22;13191;47.472;11.214;2023-07-29T11:40:23;23.90;99.90
25248;DHT22;13191;47.472;11.214;2023-07-29T11:42:51;23.90;99.90
25248;DHT22;13191;47.472;11.214;2023-07-29T11:45:19;23.90;99.90
25248;DHT22;13191;47.472;11.214;2023-07-29T11:47:45;23.90;99.90
25248;DHT22;13191;47.472;11.214;2023-07-29T11:50:12;23.90;99.90
25248;DHT22;13191;47.472;11.214;2023-07-29T11:52:42;24.00;99.90
25248;DHT22;13191;47.472;11.214;2023-07-29T11:55:09;24.10;99.90
25248;DHT22;13191;47.472;11.214;2023-07-29T11:57:37;24.10;99.90
25248;DHT22;13191;47.472;11.214;2023-07-29T12:00:07;24.10;99.90
25248;DHT22;13191;47.472;11.214;2023-07-29T12:02:37;24.20;99.90
25248;DHT22;13191;47.472;11.214;2023-07-29T12:05:04;24.30;99.90
25248;DHT22;13191;47.472;11.214;2023-07-29T12:07:30;24.30;99.90
25248;DHT22;13191;47.472;11.214;2023-07-29T12:09:56;24.40;99.90
25248;DHT22;13191;47.472;11.214;2023-07-29T12:12:22;24.50;99.90
25248;DHT22;13191;47.472;11.214;2023-07-29T12:14:48;24.50;99.90
25248;DHT22;13191;47.472;11.214;2023-07-29T12:17:15;24.50;99.90
25248;DHT22;13191;47.472;11.214;2023-07-29T12:19:42;24.60;99.90
25248;DHT22;13191;47.472;11.214;2023-07-29T12:22:09;24.60;99.90
25248;DHT22;13191;47.472;11.214;2023-07-29T12:24:40;24.60;99.90
25248;DHT22;13191;47.472;11.214;2023-07-29T12:27:10;24.70;99.90
25248;DHT22;13191;47.472;11.214;2023-07-29T12:29:40;24.70;99.90
25248;DHT22;13191;47.472;11.214;2023-07-29T12:32:06;24.70;99.90
25248;DHT22;13191;47.472;11.214;2023-07-29T12:34:32;24.80;99.90
25248;DHT22;13191;47.472;11.214;2023-07-29T12:36:59;24.90;99.90
25248;DHT22;13191;47.472;11.214;2023-07-29T12:39:26;25.00;99.90
25248;DHT22;13191;47.472;11.214;2023-07-29T12:41:56;25.10;99.90
25248;DHT22;13191;47.472;11.214;2023-07-29T12:44:29;25.20;99.90
25248;DHT22;13191;47.472;11.214;2023-07-29T12:46:55;25.30;99.90
25248;DHT22;13191;47.472;11.214;2023-07-29T12:49:20;25.40;99.90
25248;DHT22;13191;47.472;11.214;2023-07-29T12:51:46;25.50;99.90
25248;DHT22;13191;47.472;11.214;2023-07-29T12:54:11;25.60;99.90
25248;DHT22;13191;47.472;11.214;2023-07-29T12:56:37;25.60;99.90
25248;DHT22;13191;47.472;11.214;2023-07-29T12:59:06;25.60;99.90
25248;DHT22;13191;47.472;11.214;2023-07-29T13:01:32;25.70;99.90
25248;DHT22;13191;47.472;11.214;2023-07-29T13:03:58;25.80;99.90
25248;DHT22;13191;47.472;11.214;2023-07-29T13:06:23;25.80;99.90
25248;DHT22;13191;47.472;11.214;2023-07-29T13:08:49;25.70;99.90
25248;DHT22;13191;47.472;11.214;2023-07-29T13:11:16;25.70;99.90
25248;DHT22;13191;47.472;11.214;2023-07-29T13:13:42;25.60;99.90
25248;DHT22;13191;47.472;11.214;2023-07-29T13:16:08;25.70;99.90
25248;DHT22;13191;47.472;11.214;2023-07-29T13:18:33;25.70;99.90
25248;DHT22;13191;47.472;11.214;2023-07-29T13:20:59;25.60;99.90
25248;DHT22;13191;47.472;11.214;2023-07-29T13:23:25;25.70;99.90
25248;DHT22;13191;47.472;11.214;2023-07-29T13:25:52;25.60;99.90
25248;DHT22;13191;47.472;11.214;2023-07-29T13:28:18;25.60;99.90
25248;DHT22;13191;47.472;11.214;2023-07-29T13:30:44;25.50;99.90
25248;DHT22;13191;47.472;11.214;2023-07-29T13:33:10;25.60;99.90
25248;DHT22;13191;47.472;11.214;2023-07-29T13:35:36;25.50;99.90
25248;DHT22;13191;47.472;11.214;2023-07-29T13:38:02;25.50;99.90
25248;DHT22;13191;47.472;11.214;2023-07-29T13:40:31;25.50;99.90
25248;DHT22;13191;47.472;11.214;2023-07-29T13:42:56;25.50;99.90
25248;DHT22;13191;47.472;11.214;2023-07-29T13:45:22;25.50;99.90
25248;DHT22;13191;47.472;11.214;2023-07-29T13:47:49;25.40;99.90
25248;DHT22;13191;47.472;11.214;2023-07-29T13:50:16;25.30;99.90
25248;DHT22;13191;47.472;11.214;2023-07-29T13:52:41;25.30;99.90
25248;DHT22;13191;47.472;11.214;2023-07-29T13:55:07;25.20;99.90
25248;DHT22;13191;47.472;11.214;2023-07-29T13:57:33;25.10;99.90
25248;DHT22;13191;47.472;11.214;2023-07-29T13:59:58;25.00;99.90
25248;DHT22;13191;47.472;11.214;2023-07-29T14:02:24;24.90;99.90
25248;DHT22;13191;47.472;11.214;2023-07-29T14:04:51;24.80;99.90
25248;DHT22;13191;47.472;11.214;2023-07-29T14:07:17;24.70;99.90
25248;DHT22;13191;47.472;11.214;2023-07-29T14:09:43;24.50;99.90
25248;DHT22;13191;47.472;11.214;2023-07-29T14:12:08;24.00;99.90
25248;DHT22;13191;47.472;11.214;2023-07-29T14:14:38;23.80;99.90
25248;DHT22;13191;47.472;11.214;2023-07-29T14:17:04;23.60;99.90
25248;DHT22;13191;47.472;11.214;2023-07-29T14:19:29;23.40;99.90
25248;DHT22;13191;47.472;11.214;2023-07-29T14:21:55;23.30;99.90
25248;DHT22;13191;47.472;11.214;2023-07-29T14:24:21;23.10;99.90
25248;DHT22;13191;47.472;11.214;2023-07-29T14:26:48;23.00;99.90
25248;DHT22;13191;47.472;11.214;2023-07-29T14:29:15;22.60;99.90
25248;DHT22;13191;47.472;11.214;2023-07-29T14:31:41;22.10;99.90
25248;DHT22;13191;47.472;11.214;2023-07-29T14:34:07;21.60;99.90
25248;DHT22;13191;47.472;11.214;2023-07-29T14:36:32;21.40;99.90
25248;DHT22;13191;47.472;11.214;2023-07-29T14:38:58;21.20;99.90
25248;DHT22;13191;47.472;11.214;2023-07-29T14:41:24;21.10;99.90
25248;DHT22;13191;47.472;11.214;2023-07-29T14:43:49;21.20;99.90
25248;DHT22;13191;47.472;11.214;2023-07-29T14:46:15;21.00;99.90
25248;DHT22;13191;47.472;11.214;2023-07-29T14:48:40;20.60;99.90
25248;DHT22;13191;47.472;11.214;2023-07-29T14:53:32;20.00;99.90
25248;DHT22;13191;47.472;11.214;2023-07-29T14:55:57;19.80;99.90
25248;DHT22;13191;47.472;11.214;2023-07-29T14:58:23;19.70;99.90
25248;DHT22;13191;47.472;11.214;2023-07-29T15:05:42;18.80;99.90
25248;DHT22;13191;47.472;11.214;2023-07-29T15:08:08;18.70;99.90
25248;DHT22;13191;47.472;11.214;2023-07-29T15:10:33;18.50;99.90
25248;DHT22;13191;47.472;11.214;2023-07-29T15:12:59;18.40;99.90
25248;DHT22;13191;47.472;11.214;2023-07-29T15:15:24;18.30;99.90
25248;DHT22;13191;47.472;11.214;2023-07-29T15:17:50;18.40;99.90
25248;DHT22;13191;47.472;11.214;2023-07-29T15:20:15;18.50;99.90
25248;DHT22;13191;47.472;11.214;2023-07-29T15:22:41;18.60;99.90
25248;DHT22;13191;47.472;11.214;2023-07-29T15:25:09;18.70;99.90
25248;DHT22;13191;47.472;11.214;2023-07-29T15:27:35;18.80;99.90
25248;DHT22;13191;47.472;11.214;2023-07-29T15:30:00;18.80;99.90
25248;DHT22;13191;47.472;11.214;2023-07-29T15:32:26;18.80;99.90
25248;DHT22;13191;47.472;11.214;2023-07-29T15:34:53;18.80;99.90
25248;DHT22;13191;47.472;11.214;2023-07-29T15:37:18;18.70;99.90
25248;DHT22;13191;47.472;11.214;2023-07-29T15:39:44;18.60;99.90
25248;DHT22;13191;47.472;11.214;2023-07-29T15:42:10;18.60;99.90
25248;DHT22;13191;47.472;11.214;2023-07-29T15:44:35;18.60;99.90